sensor_id;sensor_type;location;lat;lon;timestamp;pressure;altitude;pressure_sealevel;temperature;humidity
38253;BME280;24785;52.372;20.672;2023-09-18T00:02:42;100805.69;;;15.40;100.00
38253;BME280;24785;52.372;20.672;2023-09-18T00:12:43;100807.88;;;15.05;100.00
38253;BME280;24785;52.372;20.672;2023-09-18T00:22:44;100808.06;;;14.76;100.00
38253;BME280;24785;52.372;20.672;2023-09-18T00:32:45;100802.41;;;14.54;100.00
38253;BME280;24785;52.372;20.672;2023-09-18T00:42:47;100804.19;;;14.40;100.00
38253;BME280;24785;52.372;20.672;2023-09-18T00:52:49;100794.47;;;14.20;100.00
38253;BME280;24785;52.372;20.672;2023-09-18T01:02:50;100813.56;;;13.76;100.00
38253;BME280;24785;52.372;20.672;2023-09-18T01:13:04;100788.50;;;13.75;100.00
38253;BME280;24785;52.372;20.672;2023-09-18T01:23:13;100792.66;;;13.63;100.00
38253;BME280;24785;52.372;20.672;2023-09-18T01:33:15;100781.31;;;13.66;100.00
38253;BME280;24785;52.372;20.672;2023-09-18T01:43:16;100779.69;;;13.65;100.00
38253;BME280;24785;52.372;20.672;2023-09-18T01:53:17;100761.66;;;13.65;100.00
38253;BME280;24785;52.372;20.672;2023-09-18T02:03:18;100774.44;;;13.54;100.00
38253;BME280;24785;52.372;20.672;2023-09-18T02:13:21;100760.09;;;13.59;100.00
38253;BME280;24785;52.372;20.672;2023-09-18T02:23:22;100751.03;;;13.79;100.00
38253;BME280;24785;52.372;20.672;2023-09-18T02:33:22;100731.63;;;14.01;100.00
38253;BME280;24785;52.372;20.672;2023-09-18T02:43:23;100719.22;;;14.24;100.00
38253;BME280;24785;52.372;20.672;2023-09-18T02:53:24;100705.19;;;14.45;100.00
38253;BME280;24785;52.372;20.672;2023-09-18T03:03:25;100712.41;;;14.50;100.00
38253;BME280;24785;52.372;20.672;2023-09-18T03:13:27;100707.88;;;14.64;100.00
38253;BME280;24785;52.372;20.672;2023-09-18T03:23:28;100720.78;;;14.48;100.00
38253;BME280;24785;52.372;20.672;2023-09-18T03:33:29;100716.19;;;14.68;100.00
38253;BME280;24785;52.372;20.672;2023-09-18T03:43:30;100727.19;;;14.71;100.00
38253;BME280;24785;52.372;20.672;2023-09-18T03:53:32;100712.75;;;14.81;100.00
38253;BME280;24785;52.372;20.672;2023-09-18T04:03:33;100706.19;;;15.01;100.00
38253;BME280;24785;52.372;20.672;2023-09-18T04:13:34;100695.22;;;15.11;100.00
38253;BME280;24785;52.372;20.672;2023-09-18T04:23:35;100691.06;;;15.19;100.00
38253;BME280;24785;52.372;20.672;2023-09-18T04:33:37;100687.97;;;15.25;100.00
38253;BME280;24785;52.372;20.672;2023-09-18T04:43:38;100684.19;;;15.26;100.00
38253;BME280;24785;52.372;20.672;2023-09-18T04:53:39;100682.88;;;15.37;100.00
38253;BME280;24785;52.372;20.672;2023-09-18T05:03:39;100692.38;;;15.49;100.00
38253;BME280;24785;52.372;20.672;2023-09-18T05:13:40;100689.03;;;15.70;100.00
38253;BME280;24785;52.372;20.672;2023-09-18T05:23:41;100691.34;;;15.77;100.00
38253;BME280;24785;52.372;20.672;2023-09-18T05:33:42;100695.50;;;15.97;100.00
38253;BME280;24785;52.372;20.672;2023-09-18T05:43:43;100699.88;;;16.20;100.00
38253;BME280;24785;52.372;20.672;2023-09-18T05:53:44;100700.16;;;16.55;100.00
38253;BME280;24785;52.372;20.672;2023-09-18T06:03:44;100718.75;;;17.06;100.00
38253;BME280;24785;52.372;20.672;2023-09-18T06:13:45;100734.84;;;17.42;100.00
38253;BME280;24785;52.372;20.672;2023-09-18T06:23:46;100731.03;;;17.74;100.00
38253;BME280;24785;52.372;20.672;2023-09-18T06:33:47;100745.84;;;18.25;100.00
38253;BME280;24785;52.372;20.672;2023-09-18T06:43:48;100737.47;;;18.70;100.00
38253;BME280;24785;52.372;20.672;2023-09-18T06:53:48;100741.72;;;19.14;100.00
38253;BME280;24785;52.372;20.672;2023-09-18T07:03:49;100748.47;;;19.63;100.00
38253;BME280;24785;52.372;20.672;2023-09-18T07:13:51;100752.66;;;20.20;100.00
38253;BME280;24785;52.372;20.672;2023-09-18T07:23:51;100745.16;;;20.67;100.00
38253;BME280;24785;52.372;20.672;2023-09-18T07:33:52;100739.88;;;21.03;100.00
38253;BME280;24785;52.372;20.672;2023-09-18T07:43:53;100726.59;;;21.59;100.00
38253;BME280;24785;52.372;20.672;2023-09-18T07:53:54;100739.91;;;22.10;100.00
38253;BME280;24785;52.372;20.672;2023-09-18T08:03:55;100724.72;;;22.49;91.33
38253;BME280;24785;52.372;20.672;2023-09-18T08:13:57;100715.06;;;22.79;85.72
38253;BME280;24785;52.372;20.672;2023-09-18T08:23:58;100711.31;;;23.00;80.45
38253;BME280;24785;52.372;20.672;2023-09-18T08:33:59;100701.16;;;23.28;76.91
38253;BME280;24785;52.372;20.672;2023-09-18T08:44:01;100684.75;;;23.60;76.93
38253;BME280;24785;52.372;20.672;2023-09-18T08:54:04;100683.00;;;24.02;73.18
38253;BME280;24785;52.372;20.672;2023-09-18T09:04:06;100672.69;;;24.31;72.09
38253;BME280;24785;52.372;20.672;2023-09-18T09:14:12;100658.63;;;24.52;70.01
38253;BME280;24785;52.372;20.672;2023-09-18T09:41:01;100643.31;;;24.70;66.66
38253;BME280;24785;52.372;20.672;2023-09-18T09:51:02;100617.88;;;24.92;63.44
38253;BME280;24785;52.372;20.672;2023-09-18T10:16:22;100595.13;;;25.64;60.52
38253;BME280;24785;52.372;20.672;2023-09-18T10:26:27;100590.44;;;26.24;59.40
38253;BME280;24785;52.372;20.672;2023-09-18T10:36:33;100569.34;;;26.69;56.72
38253;BME280;24785;52.372;20.672;2023-09-18T10:46:35;100559.00;;;26.55;56.97
38253;BME280;24785;52.372;20.672;2023-09-18T10:56:36;100553.00;;;26.90;56.49
38253;BME280;24785;52.372;20.672;2023-09-18T11:16:56;100519.00;;;27.06;53.88
38253;BME280;24785;52.372;20.672;2023-09-18T11:26:57;100519.69;;;27.54;52.65
38253;BME280;24785;52.372;20.672;2023-09-18T11:36:59;100514.06;;;27.36;53.05
38253;BME280;24785;52.372;20.672;2023-09-18T11:47:07;100516.59;;;27.66;52.85
38253;BME280;24785;52.372;20.672;2023-09-18T11:57:08;100503.75;;;28.02;50.61
38253;BME280;24785;52.372;20.672;2023-09-18T12:07:10;100493.16;;;28.08;49.25
38253;BME280;24785;52.372;20.672;2023-09-18T12:17:14;100479.81;;;28.24;48.35
38253;BME280;24785;52.372;20.672;2023-09-18T12:27:15;100474.28;;;28.17;47.45
38253;BME280;24785;52.372;20.672;2023-09-18T12:37:16;100465.59;;;28.08;47.18
38253;BME280;24785;52.372;20.672;2023-09-18T12:47:17;100458.19;;;28.47;46.05
38253;BME280;24785;52.372;20.672;2023-09-18T12:57:18;100437.31;;;28.61;44.56
38253;BME280;24785;52.372;20.672;2023-09-18T13:07:19;100427.44;;;28.74;45.26
38253;BME280;24785;52.372;20.672;2023-09-18T13:17:20;100409.31;;;28.69;44.61
38253;BME280;24785;52.372;20.672;2023-09-18T13:27:21;100397.56;;;28.40;46.44
38253;BME280;24785;52.372;20.672;2023-09-18T13:37:21;100393.53;;;27.67;47.75
38253;BME280;24785;52.372;20.672;2023-09-18T13:47:22;100379.13;;;27.01;48.92
38253;BME280;24785;52.372;20.672;2023-09-18T13:57:23;100360.75;;;27.29;48.18
38253;BME280;24785;52.372;20.672;2023-09-18T14:07:24;100352.09;;;27.31;47.72
38253;BME280;24785;52.372;20.672;2023-09-18T14:17:25;100340.56;;;26.97;48.15
38253;BME280;24785;52.372;20.672;2023-09-18T14:27:26;100336.84;;;26.64;48.84
38253;BME280;24785;52.372;20.672;2023-09-18T14:37:27;100329.25;;;26.44;49.72
38253;BME280;24785;52.372;20.672;2023-09-18T14:47:28;100315.59;;;26.54;48.33
38253;BME280;24785;52.372;20.672;2023-09-18T14:57:29;100312.84;;;26.54;48.59
38253;BME280;24785;52.372;20.672;2023-09-18T15:07:30;100308.53;;;26.53;47.44
38253;BME280;24785;52.372;20.672;2023-09-18T15:17:31;100302.78;;;26.18;49.50
38253;BME280;24785;52.372;20.672;2023-09-18T15:27:33;100297.63;;;26.13;48.92
38253;BME280;24785;52.372;20.672;2023-09-18T15:37:34;100291.38;;;25.68;50.36
38253;BME280;24785;52.372;20.672;2023-09-18T15:47:35;100296.66;;;25.09;53.03
38253;BME280;24785;52.372;20.672;2023-09-18T15:57:37;100296.13;;;24.44;55.92
38253;BME280;24785;52.372;20.672;2023-09-18T16:07:40;100292.25;;;23.96;57.71
38253;BME280;24785;52.372;20.672;2023-09-18T16:17:41;100281.28;;;23.50;58.96
38253;BME280;24785;52.372;20.672;2023-09-18T16:27:42;100274.59;;;23.05;61.26
38253;BME280;24785;52.372;20.672;2023-09-18T16:37:45;100272.28;;;22.53;63.59
38253;BME280;24785;52.372;20.672;2023-09-18T16:47:47;100275.56;;;21.92;65.46
38253;BME280;24785;52.372;20.672;2023-09-18T16:57:47;100262.50;;;21.38;68.84
38253;BME280;24785;52.372;20.672;2023-09-18T17:07:48;100258.03;;;21.18;71.14
38253;BME280;24785;52.372;20.672;2023-09-18T17:17:50;100246.28;;;20.86;74.15
38253;BME280;24785;52.372;20.672;2023-09-18T17:27:54;100250.69;;;20.78;77.04
38253;BME280;24785;52.372;20.672;2023-09-18T17:37:56;100254.66;;;20.53;79.22
38253;BME280;24785;52.372;20.672;2023-09-18T17:47:57;100248.53;;;20.43;81.75
38253;BME280;24785;52.372;20.672;2023-09-18T17:57:58;100251.81;;;20.37;83.30
38253;BME280;24785;52.372;20.672;2023-09-18T18:07:59;100255.69;;;20.11;84.91
38253;BME280;24785;52.372;20.672;2023-09-18T18:18:00;100261.34;;;19.82;88.12
38253;BME280;24785;52.372;20.672;2023-09-18T18:28:01;100250.22;;;19.63;91.45
38253;BME280;24785;52.372;20.672;2023-09-18T18:38:03;100246.69;;;19.50;93.12
38253;BME280;24785;52.372;20.672;2023-09-18T18:48:05;100242.53;;;19.53;94.30
38253;BME280;24785;52.372;20.672;2023-09-18T18:58:07;100232.63;;;19.48;94.77
38253;BME280;24785;52.372;20.672;2023-09-18T19:08:08;100240.81;;;19.60;95.71
38253;BME280;24785;52.372;20.672;2023-09-18T19:18:09;100232.09;;;19.55;96.40
38253;BME280;24785;52.372;20.672;2023-09-18T19:28:10;100221.31;;;19.46;98.00
38253;BME280;24785;52.372;20.672;2023-09-18T19:38:12;100209.69;;;19.25;100.00
38253;BME280;24785;52.372;20.672;2023-09-18T19:48:13;100206.50;;;19.10;100.00
38253;BME280;24785;52.372;20.672;2023-09-18T19:58:14;100202.38;;;18.92;100.00
38253;BME280;24785;52.372;20.672;2023-09-18T20:08:15;100191.03;;;18.90;100.00
38253;BME280;24785;52.372;20.672;2023-09-18T20:18:16;100178.81;;;18.84;100.00
38253;BME280;24785;52.372;20.672;2023-09-18T20:28:17;100183.75;;;18.70;100.00
38253;BME280;24785;52.372;20.672;2023-09-18T20:38:18;100186.50;;;18.61;100.00
38253;BME280;24785;52.372;20.672;2023-09-18T20:48:20;100179.56;;;18.51;100.00
38253;BME280;24785;52.372;20.672;2023-09-18T20:58:20;100163.81;;;18.45;100.00
38253;BME280;24785;52.372;20.672;2023-09-18T21:08:22;100166.59;;;18.36;100.00
38253;BME280;24785;52.372;20.672;2023-09-18T21:18:23;100157.59;;;18.23;100.00
38253;BME280;24785;52.372;20.672;2023-09-18T21:28:24;100153.69;;;18.12;100.00
38253;BME280;24785;52.372;20.672;2023-09-18T21:38:25;100147.09;;;17.92;100.00
38253;BME280;24785;52.372;20.672;2023-09-18T21:48:25;100147.88;;;17.72;100.00
38253;BME280;24785;52.372;20.672;2023-09-18T21:58:26;100121.34;;;17.48;100.00
38253;BME280;24785;52.372;20.672;2023-09-18T22:08:27;100127.47;;;17.37;100.00
38253;BME280;24785;52.372;20.672;2023-09-18T22:18:28;100119.94;;;17.13;100.00
38253;BME280;24785;52.372;20.672;2023-09-18T22:28:29;100105.78;;;16.98;100.00
38253;BME280;24785;52.372;20.672;2023-09-18T22:38:37;100099.75;;;16.93;100.00
38253;BME280;24785;52.372;20.672;2023-09-18T22:59:18;100066.06;;;16.64;100.00
38253;BME280;24785;52.372;20.672;2023-09-18T23:09:19;100056.53;;;16.67;100.00
38253;BME280;24785;52.372;20.672;2023-09-18T23:19:21;100043.97;;;16.62;100.00
38253;BME280;24785;52.372;20.672;2023-09-18T23:29:22;100020.13;;;16.56;100.00
38253;BME280;24785;52.372;20.672;2023-09-18T23:39:23;100014.38;;;16.57;100.00
38253;BME280;24785;52.372;20.672;2023-09-18T23:49:24;100005.16;;;16.58;100.00
38253;BME280;24785;52.372;20.672;2023-09-18T23:59:25;100001.66;;;16.58;100.00
